Conway, Washington
Current Conditions -  °F | °C
As of 5:55 AM on Wednesday 26 Nov 2014 (Local Time) from KBVS Reporting Station
Overcast Overcast  
Wind Chill: 55°   Ceiling: 300
Heat Index: 55°   Visibility: 2.5mi
Dew Point: 55°   Wind: 5mph
Humidity: 100%   Direction: 140°SE
Pressure: 30.1"   Gusts: NA
Location:  48.34°N, 122.35°W
Report Text: KBVS 261355Z AUTO 14004KT 2 1/2SM BKN003 OVC009 13/13 A3010 RMK A01 P000
Loading
Personal Weather Stations






























Interactive Weather Map New forecast layout! Learn more

10-Day Weather Forecast

Advertisements
Track Severe Weather on mobile